sensor_id;sensor_type;location;lat;lon;timestamp;temperature;humidity
76537;DHT22;65381;51.254;15.592;2023-09-18T00:02:04;17.00;56.80
76537;DHT22;65381;51.254;15.592;2023-09-18T00:04:34;17.00;56.80
76537;DHT22;65381;51.254;15.592;2023-09-18T00:07:02;17.00;56.90
76537;DHT22;65381;51.254;15.592;2023-09-18T00:09:30;17.00;56.90
76537;DHT22;65381;51.254;15.592;2023-09-18T00:11:59;17.00;56.90
76537;DHT22;65381;51.254;15.592;2023-09-18T00:14:26;16.90;57.00
76537;DHT22;65381;51.254;15.592;2023-09-18T00:16:55;16.90;57.10
76537;DHT22;65381;51.254;15.592;2023-09-18T00:19:26;16.80;57.10
76537;DHT22;65381;51.254;15.592;2023-09-18T00:21:57;16.80;57.20
76537;DHT22;65381;51.254;15.592;2023-09-18T00:24:28;16.80;57.20
76537;DHT22;65381;51.254;15.592;2023-09-18T00:26:56;16.80;57.40
76537;DHT22;65381;51.254;15.592;2023-09-18T00:29:24;16.90;57.20
76537;DHT22;65381;51.254;15.592;2023-09-18T00:31:52;16.90;57.20
76537;DHT22;65381;51.254;15.592;2023-09-18T00:34:21;16.90;57.20
76537;DHT22;65381;51.254;15.592;2023-09-18T00:36:50;16.90;57.30
76537;DHT22;65381;51.254;15.592;2023-09-18T00:39:20;16.90;57.30
76537;DHT22;65381;51.254;15.592;2023-09-18T00:41:48;16.90;57.40
76537;DHT22;65381;51.254;15.592;2023-09-18T00:44:20;16.90;57.40
76537;DHT22;65381;51.254;15.592;2023-09-18T00:46:50;16.90;57.40
76537;DHT22;65381;51.254;15.592;2023-09-18T00:49:20;16.80;57.50
76537;DHT22;65381;51.254;15.592;2023-09-18T00:51:50;16.80;57.50
76537;DHT22;65381;51.254;15.592;2023-09-18T00:54:19;16.80;57.60
76537;DHT22;65381;51.254;15.592;2023-09-18T00:56:48;16.70;57.70
76537;DHT22;65381;51.254;15.592;2023-09-18T00:59:16;16.60;57.80
76537;DHT22;65381;51.254;15.592;2023-09-18T01:01:44;16.60;57.90
76537;DHT22;65381;51.254;15.592;2023-09-18T01:04:16;16.60;58.00
76537;DHT22;65381;51.254;15.592;2023-09-18T01:06:45;16.60;58.00
76537;DHT22;65381;51.254;15.592;2023-09-18T01:09:13;16.60;58.10
76537;DHT22;65381;51.254;15.592;2023-09-18T01:14:44;16.70;58.20
76537;DHT22;65381;51.254;15.592;2023-09-18T01:17:16;16.70;58.20
76537;DHT22;65381;51.254;15.592;2023-09-18T01:19:46;16.70;58.10
76537;DHT22;65381;51.254;15.592;2023-09-18T01:22:18;16.70;58.20
76537;DHT22;65381;51.254;15.592;2023-09-18T01:24:47;16.70;58.10
76537;DHT22;65381;51.254;15.592;2023-09-18T01:27:18;16.70;58.10
76537;DHT22;65381;51.254;15.592;2023-09-18T01:29:47;16.70;58.20
76537;DHT22;65381;51.254;15.592;2023-09-18T01:32:15;16.60;58.20
76537;DHT22;65381;51.254;15.592;2023-09-18T01:34:53;16.60;58.30
76537;DHT22;65381;51.254;15.592;2023-09-18T01:37:30;16.50;58.40
76537;DHT22;65381;51.254;15.592;2023-09-18T01:39:59;16.50;58.50
76537;DHT22;65381;51.254;15.592;2023-09-18T01:42:28;16.50;58.60
76537;DHT22;65381;51.254;15.592;2023-09-18T01:44:56;16.40;58.60
76537;DHT22;65381;51.254;15.592;2023-09-18T01:47:25;16.40;58.60
76537;DHT22;65381;51.254;15.592;2023-09-18T01:49:54;16.40;58.70
76537;DHT22;65381;51.254;15.592;2023-09-18T01:52:23;16.40;58.80
76537;DHT22;65381;51.254;15.592;2023-09-18T01:54:51;16.30;59.00
76537;DHT22;65381;51.254;15.592;2023-09-18T01:57:19;16.30;59.00
76537;DHT22;65381;51.254;15.592;2023-09-18T01:59:47;16.30;59.00
76537;DHT22;65381;51.254;15.592;2023-09-18T02:02:15;16.30;59.10
76537;DHT22;65381;51.254;15.592;2023-09-18T02:04:58;16.30;59.20
76537;DHT22;65381;51.254;15.592;2023-09-18T02:07:36;16.30;59.20
76537;DHT22;65381;51.254;15.592;2023-09-18T02:10:04;16.30;59.20
76537;DHT22;65381;51.254;15.592;2023-09-18T02:12:32;16.30;59.20
76537;DHT22;65381;51.254;15.592;2023-09-18T02:15:02;16.20;59.20
76537;DHT22;65381;51.254;15.592;2023-09-18T02:17:34;16.20;59.30
76537;DHT22;65381;51.254;15.592;2023-09-18T02:20:03;16.20;59.30
76537;DHT22;65381;51.254;15.592;2023-09-18T02:22:37;16.10;59.40
76537;DHT22;65381;51.254;15.592;2023-09-18T02:25:07;16.10;59.50
76537;DHT22;65381;51.254;15.592;2023-09-18T02:27:36;16.00;59.60
76537;DHT22;65381;51.254;15.592;2023-09-18T02:30:04;16.00;59.70
76537;DHT22;65381;51.254;15.592;2023-09-18T02:32:33;16.00;59.80
76537;DHT22;65381;51.254;15.592;2023-09-18T02:35:03;16.00;59.90
76537;DHT22;65381;51.254;15.592;2023-09-18T02:37:32;16.00;60.00
76537;DHT22;65381;51.254;15.592;2023-09-18T02:40:00;16.00;60.10
76537;DHT22;65381;51.254;15.592;2023-09-18T02:42:28;16.00;60.20
76537;DHT22;65381;51.254;15.592;2023-09-18T02:44:56;16.00;60.20
76537;DHT22;65381;51.254;15.592;2023-09-18T02:47:24;16.00;60.20
76537;DHT22;65381;51.254;15.592;2023-09-18T02:49:53;16.00;60.30
76537;DHT22;65381;51.254;15.592;2023-09-18T02:52:22;15.90;60.30
76537;DHT22;65381;51.254;15.592;2023-09-18T02:54:49;15.90;60.40
76537;DHT22;65381;51.254;15.592;2023-09-18T02:57:18;15.90;60.50
76537;DHT22;65381;51.254;15.592;2023-09-18T02:59:47;15.80;60.50
76537;DHT22;65381;51.254;15.592;2023-09-18T03:02:16;15.80;60.50
76537;DHT22;65381;51.254;15.592;2023-09-18T03:04:44;15.90;60.50
76537;DHT22;65381;51.254;15.592;2023-09-18T03:07:13;15.90;60.60
76537;DHT22;65381;51.254;15.592;2023-09-18T03:09:41;15.90;60.70
76537;DHT22;65381;51.254;15.592;2023-09-18T03:12:09;16.00;60.60
76537;DHT22;65381;51.254;15.592;2023-09-18T03:14:37;16.00;60.60
76537;DHT22;65381;51.254;15.592;2023-09-18T03:17:06;16.00;60.60
76537;DHT22;65381;51.254;15.592;2023-09-18T03:19:34;16.00;60.50
76537;DHT22;65381;51.254;15.592;2023-09-18T03:22:03;16.00;60.50
76537;DHT22;65381;51.254;15.592;2023-09-18T03:24:30;16.00;60.50
76537;DHT22;65381;51.254;15.592;2023-09-18T03:26:59;16.00;60.50
76537;DHT22;65381;51.254;15.592;2023-09-18T03:29:29;16.00;60.60
76537;DHT22;65381;51.254;15.592;2023-09-18T03:31:59;16.00;60.70
76537;DHT22;65381;51.254;15.592;2023-09-18T03:34:29;16.00;60.70
76537;DHT22;65381;51.254;15.592;2023-09-18T03:36:58;16.00;60.70
76537;DHT22;65381;51.254;15.592;2023-09-18T03:39:26;15.90;60.80
76537;DHT22;65381;51.254;15.592;2023-09-18T03:41:54;15.90;60.90
76537;DHT22;65381;51.254;15.592;2023-09-18T03:44:22;15.80;60.90
76537;DHT22;65381;51.254;15.592;2023-09-18T03:46:51;15.80;61.00
76537;DHT22;65381;51.254;15.592;2023-09-18T03:49:19;15.80;61.00
76537;DHT22;65381;51.254;15.592;2023-09-18T03:51:50;15.80;61.00
76537;DHT22;65381;51.254;15.592;2023-09-18T03:54:18;15.70;61.10
76537;DHT22;65381;51.254;15.592;2023-09-18T03:56:46;15.60;61.10
76537;DHT22;65381;51.254;15.592;2023-09-18T03:59:15;15.60;61.20
76537;DHT22;65381;51.254;15.592;2023-09-18T04:01:43;15.60;61.20
76537;DHT22;65381;51.254;15.592;2023-09-18T04:04:11;15.60;61.20
76537;DHT22;65381;51.254;15.592;2023-09-18T04:06:43;15.60;61.30
76537;DHT22;65381;51.254;15.592;2023-09-18T04:09:11;15.60;61.40
76537;DHT22;65381;51.254;15.592;2023-09-18T04:11:39;15.60;61.50
76537;DHT22;65381;51.254;15.592;2023-09-18T04:14:07;15.50;61.50
76537;DHT22;65381;51.254;15.592;2023-09-18T04:16:39;15.50;61.60
76537;DHT22;65381;51.254;15.592;2023-09-18T04:19:09;15.50;61.60
76537;DHT22;65381;51.254;15.592;2023-09-18T04:21:37;15.50;61.60
76537;DHT22;65381;51.254;15.592;2023-09-18T04:24:05;15.40;61.70
76537;DHT22;65381;51.254;15.592;2023-09-18T04:26:34;15.40;61.70
76537;DHT22;65381;51.254;15.592;2023-09-18T04:29:02;15.40;61.90
76537;DHT22;65381;51.254;15.592;2023-09-18T04:31:31;15.40;61.90
76537;DHT22;65381;51.254;15.592;2023-09-18T04:34:00;15.30;62.00
76537;DHT22;65381;51.254;15.592;2023-09-18T04:36:28;15.30;62.10
76537;DHT22;65381;51.254;15.592;2023-09-18T04:38:56;15.30;62.20
76537;DHT22;65381;51.254;15.592;2023-09-18T04:41:24;15.30;62.20
76537;DHT22;65381;51.254;15.592;2023-09-18T04:43:54;15.40;62.20
76537;DHT22;65381;51.254;15.592;2023-09-18T04:46:23;15.40;62.20
76537;DHT22;65381;51.254;15.592;2023-09-18T04:48:52;15.40;62.20
76537;DHT22;65381;51.254;15.592;2023-09-18T04:51:24;15.40;62.20
76537;DHT22;65381;51.254;15.592;2023-09-18T04:53:51;15.40;62.30
76537;DHT22;65381;51.254;15.592;2023-09-18T04:56:20;15.40;62.40
76537;DHT22;65381;51.254;15.592;2023-09-18T04:58:48;15.40;62.50
76537;DHT22;65381;51.254;15.592;2023-09-18T05:01:18;15.40;62.50
76537;DHT22;65381;51.254;15.592;2023-09-18T05:03:48;15.50;62.60
76537;DHT22;65381;51.254;15.592;2023-09-18T05:06:16;15.60;62.60
76537;DHT22;65381;51.254;15.592;2023-09-18T05:08:45;15.70;62.70
76537;DHT22;65381;51.254;15.592;2023-09-18T05:11:14;15.80;62.70
76537;DHT22;65381;51.254;15.592;2023-09-18T05:13:42;15.80;62.70
76537;DHT22;65381;51.254;15.592;2023-09-18T05:16:10;15.90;62.80
76537;DHT22;65381;51.254;15.592;2023-09-18T05:18:38;16.00;62.80
76537;DHT22;65381;51.254;15.592;2023-09-18T05:21:07;16.00;62.90
76537;DHT22;65381;51.254;15.592;2023-09-18T05:23:35;16.10;62.90
76537;DHT22;65381;51.254;15.592;2023-09-18T05:26:04;16.10;62.80
76537;DHT22;65381;51.254;15.592;2023-09-18T05:28:32;16.20;62.90
76537;DHT22;65381;51.254;15.592;2023-09-18T05:31:00;16.30;63.00
76537;DHT22;65381;51.254;15.592;2023-09-18T05:33:28;16.40;63.00
76537;DHT22;65381;51.254;15.592;2023-09-18T05:35:56;16.50;63.00
76537;DHT22;65381;51.254;15.592;2023-09-18T05:38:25;16.60;63.10
76537;DHT22;65381;51.254;15.592;2023-09-18T05:40:53;16.80;63.20
76537;DHT22;65381;51.254;15.592;2023-09-18T05:43:21;17.30;63.80
76537;DHT22;65381;51.254;15.592;2023-09-18T05:45:50;18.20;64.20
76537;DHT22;65381;51.254;15.592;2023-09-18T05:48:18;19.30;64.10
76537;DHT22;65381;51.254;15.592;2023-09-18T05:50:47;20.50;63.70
76537;DHT22;65381;51.254;15.592;2023-09-18T05:53:15;21.60;63.00
76537;DHT22;65381;51.254;15.592;2023-09-18T05:55:44;22.50;62.50
76537;DHT22;65381;51.254;15.592;2023-09-18T05:58:12;23.50;61.90
76537;DHT22;65381;51.254;15.592;2023-09-18T06:00:40;24.30;61.60
76537;DHT22;65381;51.254;15.592;2023-09-18T06:03:08;25.20;60.90
76537;DHT22;65381;51.254;15.592;2023-09-18T06:05:40;25.80;60.40
76537;DHT22;65381;51.254;15.592;2023-09-18T06:08:08;26.30;60.20
76537;DHT22;65381;51.254;15.592;2023-09-18T06:10:36;26.70;60.10
76537;DHT22;65381;51.254;15.592;2023-09-18T06:13:04;27.00;59.90
76537;DHT22;65381;51.254;15.592;2023-09-18T06:15:33;27.30;59.90
76537;DHT22;65381;51.254;15.592;2023-09-18T06:18:02;27.70;59.50
76537;DHT22;65381;51.254;15.592;2023-09-18T06:20:31;28.10;59.00
76537;DHT22;65381;51.254;15.592;2023-09-18T06:23:00;28.20;58.50
76537;DHT22;65381;51.254;15.592;2023-09-18T06:25:31;28.30;58.40
76537;DHT22;65381;51.254;15.592;2023-09-18T06:27:59;28.50;58.10
76537;DHT22;65381;51.254;15.592;2023-09-18T06:30:29;28.50;58.00
76537;DHT22;65381;51.254;15.592;2023-09-18T06:32:59;28.60;57.70
76537;DHT22;65381;51.254;15.592;2023-09-18T06:35:27;28.80;57.20
76537;DHT22;65381;51.254;15.592;2023-09-18T06:37:55;28.80;56.70
76537;DHT22;65381;51.254;15.592;2023-09-18T06:40:30;29.00;56.60
76537;DHT22;65381;51.254;15.592;2023-09-18T06:42:59;29.40;56.10
76537;DHT22;65381;51.254;15.592;2023-09-18T06:45:28;29.70;55.70
76537;DHT22;65381;51.254;15.592;2023-09-18T06:47:56;30.00;55.30
76537;DHT22;65381;51.254;15.592;2023-09-18T06:50:26;30.10;55.20
76537;DHT22;65381;51.254;15.592;2023-09-18T06:52:56;30.50;54.70
76537;DHT22;65381;51.254;15.592;2023-09-18T06:55:24;31.00;54.20
76537;DHT22;65381;51.254;15.592;2023-09-18T06:57:52;31.40;53.60
76537;DHT22;65381;51.254;15.592;2023-09-18T07:00:21;31.80;52.90
76537;DHT22;65381;51.254;15.592;2023-09-18T07:02:49;31.90;52.50
76537;DHT22;65381;51.254;15.592;2023-09-18T07:05:18;31.70;52.60
76537;DHT22;65381;51.254;15.592;2023-09-18T07:07:47;31.60;52.50
76537;DHT22;65381;51.254;15.592;2023-09-18T07:10:15;31.50;52.30
76537;DHT22;65381;51.254;15.592;2023-09-18T07:12:43;31.60;52.30
76537;DHT22;65381;51.254;15.592;2023-09-18T07:15:11;31.80;52.00
76537;DHT22;65381;51.254;15.592;2023-09-18T07:17:39;32.20;51.60
76537;DHT22;65381;51.254;15.592;2023-09-18T07:20:08;32.70;51.10
76537;DHT22;65381;51.254;15.592;2023-09-18T07:22:47;33.00;50.50
76537;DHT22;65381;51.254;15.592;2023-09-18T07:25:18;33.30;50.30
76537;DHT22;65381;51.254;15.592;2023-09-18T07:27:46;33.90;50.00
76537;DHT22;65381;51.254;15.592;2023-09-18T07:30:15;34.70;49.30
76537;DHT22;65381;51.254;15.592;2023-09-18T07:32:48;35.50;48.40
76537;DHT22;65381;51.254;15.592;2023-09-18T07:35:17;36.00;47.80
76537;DHT22;65381;51.254;15.592;2023-09-18T07:37:49;36.30;47.30
76537;DHT22;65381;51.254;15.592;2023-09-18T07:40:17;36.30;47.20
76537;DHT22;65381;51.254;15.592;2023-09-18T07:42:45;36.30;46.80
76537;DHT22;65381;51.254;15.592;2023-09-18T07:45:14;36.00;46.80
76537;DHT22;65381;51.254;15.592;2023-09-18T07:47:42;35.90;46.80
76537;DHT22;65381;51.254;15.592;2023-09-18T07:50:10;36.30;46.60
76537;DHT22;65381;51.254;15.592;2023-09-18T07:52:38;36.70;46.10
76537;DHT22;65381;51.254;15.592;2023-09-18T07:55:08;37.20;45.50
76537;DHT22;65381;51.254;15.592;2023-09-18T07:57:36;37.00;45.40
76537;DHT22;65381;51.254;15.592;2023-09-18T08:00:09;37.00;45.30
76537;DHT22;65381;51.254;15.592;2023-09-18T08:02:40;37.10;45.10
76537;DHT22;65381;51.254;15.592;2023-09-18T08:05:08;37.60;44.60
76537;DHT22;65381;51.254;15.592;2023-09-18T08:07:37;38.10;44.00
76537;DHT22;65381;51.254;15.592;2023-09-18T08:10:06;38.50;43.60
76537;DHT22;65381;51.254;15.592;2023-09-18T08:12:36;38.90;43.10
76537;DHT22;65381;51.254;15.592;2023-09-18T08:15:05;39.00;42.80
76537;DHT22;65381;51.254;15.592;2023-09-18T08:17:36;39.10;42.70
76537;DHT22;65381;51.254;15.592;2023-09-18T08:20:05;39.30;42.40
76537;DHT22;65381;51.254;15.592;2023-09-18T08:22:40;39.50;42.10
76537;DHT22;65381;51.254;15.592;2023-09-18T08:25:09;39.90;41.70
76537;DHT22;65381;51.254;15.592;2023-09-18T08:27:39;40.20;41.30
76537;DHT22;65381;51.254;15.592;2023-09-18T08:30:13;40.40;40.90
76537;DHT22;65381;51.254;15.592;2023-09-18T08:32:42;40.40;40.60
76537;DHT22;65381;51.254;15.592;2023-09-18T08:35:11;39.80;40.80
76537;DHT22;65381;51.254;15.592;2023-09-18T08:37:43;39.30;41.10
76537;DHT22;65381;51.254;15.592;2023-09-18T08:40:12;39.00;41.00
76537;DHT22;65381;51.254;15.592;2023-09-18T08:42:46;39.40;40.60
76537;DHT22;65381;51.254;15.592;2023-09-18T08:45:27;39.90;40.10
76537;DHT22;65381;51.254;15.592;2023-09-18T08:47:59;40.60;39.50
76537;DHT22;65381;51.254;15.592;2023-09-18T08:50:31;41.00;39.10
76537;DHT22;65381;51.254;15.592;2023-09-18T08:52:59;41.40;38.80
76537;DHT22;65381;51.254;15.592;2023-09-18T08:55:34;41.90;38.20
76537;DHT22;65381;51.254;15.592;2023-09-18T08:58:02;42.40;37.60
76537;DHT22;65381;51.254;15.592;2023-09-18T09:00:30;42.60;37.30
76537;DHT22;65381;51.254;15.592;2023-09-18T09:02:58;42.20;37.20
76537;DHT22;65381;51.254;15.592;2023-09-18T09:05:27;41.90;37.30
76537;DHT22;65381;51.254;15.592;2023-09-18T09:07:55;42.00;37.30
76537;DHT22;65381;51.254;15.592;2023-09-18T09:10:24;42.50;36.60
76537;DHT22;65381;51.254;15.592;2023-09-18T09:12:55;42.80;36.40
76537;DHT22;65381;51.254;15.592;2023-09-18T09:15:27;43.40;35.90
76537;DHT22;65381;51.254;15.592;2023-09-18T09:18:07;43.70;35.30
76537;DHT22;65381;51.254;15.592;2023-09-18T09:20:37;43.70;35.10
76537;DHT22;65381;51.254;15.592;2023-09-18T09:23:07;43.20;35.40
76537;DHT22;65381;51.254;15.592;2023-09-18T09:25:36;43.30;35.30
76537;DHT22;65381;51.254;15.592;2023-09-18T09:28:06;43.40;34.90
76537;DHT22;65381;51.254;15.592;2023-09-18T09:30:36;43.50;35.00
76537;DHT22;65381;51.254;15.592;2023-09-18T09:33:05;44.00;34.70
76537;DHT22;65381;51.254;15.592;2023-09-18T09:35:36;44.30;34.40
76537;DHT22;65381;51.254;15.592;2023-09-18T09:38:12;44.70;34.00
76537;DHT22;65381;51.254;15.592;2023-09-18T09:40:43;44.70;33.80
76537;DHT22;65381;51.254;15.592;2023-09-18T09:43:13;44.60;33.90
76537;DHT22;65381;51.254;15.592;2023-09-18T09:45:46;44.70;33.50
76537;DHT22;65381;51.254;15.592;2023-09-18T09:48:14;44.40;33.20
76537;DHT22;65381;51.254;15.592;2023-09-18T09:50:46;43.40;33.70
76537;DHT22;65381;51.254;15.592;2023-09-18T09:53:17;43.10;34.00
76537;DHT22;65381;51.254;15.592;2023-09-18T09:55:54;43.10;33.70
76537;DHT22;65381;51.254;15.592;2023-09-18T09:58:26;42.80;33.50
76537;DHT22;65381;51.254;15.592;2023-09-18T10:01:03;42.30;33.60
76537;DHT22;65381;51.254;15.592;2023-09-18T10:03:35;41.80;33.90
76537;DHT22;65381;51.254;15.592;2023-09-18T10:06:05;41.60;33.80
76537;DHT22;65381;51.254;15.592;2023-09-18T10:08:34;41.40;33.90
76537;DHT22;65381;51.254;15.592;2023-09-18T10:11:08;41.50;33.50
76537;DHT22;65381;51.254;15.592;2023-09-18T10:13:51;41.70;33.50
76537;DHT22;65381;51.254;15.592;2023-09-18T10:16:23;42.40;33.00
76537;DHT22;65381;51.254;15.592;2023-09-18T10:22:05;44.70;31.60
76537;DHT22;65381;51.254;15.592;2023-09-18T10:24:34;45.30;30.90
76537;DHT22;65381;51.254;15.592;2023-09-18T10:27:05;45.00;31.20
76537;DHT22;65381;51.254;15.592;2023-09-18T10:29:35;44.70;31.30
76537;DHT22;65381;51.254;15.592;2023-09-18T10:32:06;44.50;30.90
76537;DHT22;65381;51.254;15.592;2023-09-18T10:34:38;44.00;31.20
76537;DHT22;65381;51.254;15.592;2023-09-18T10:37:08;44.00;31.00
76537;DHT22;65381;51.254;15.592;2023-09-18T10:39:39;43.90;30.90
76537;DHT22;65381;51.254;15.592;2023-09-18T10:42:10;44.20;30.70
76537;DHT22;65381;51.254;15.592;2023-09-18T10:44:41;44.50;30.40
76537;DHT22;65381;51.254;15.592;2023-09-18T10:47:10;44.80;30.10
76537;DHT22;65381;51.254;15.592;2023-09-18T10:49:39;45.00;30.00
76537;DHT22;65381;51.254;15.592;2023-09-18T10:52:12;45.70;29.50
76537;DHT22;65381;51.254;15.592;2023-09-18T10:54:41;45.90;29.20
76537;DHT22;65381;51.254;15.592;2023-09-18T10:57:09;46.10;29.10
76537;DHT22;65381;51.254;15.592;2023-09-18T10:59:47;45.90;28.90
76537;DHT22;65381;51.254;15.592;2023-09-18T11:02:16;45.30;29.10
76537;DHT22;65381;51.254;15.592;2023-09-18T11:04:45;45.50;29.00
76537;DHT22;65381;51.254;15.592;2023-09-18T11:07:23;45.40;28.90
76537;DHT22;65381;51.254;15.592;2023-09-18T11:09:52;45.60;28.80
76537;DHT22;65381;51.254;15.592;2023-09-18T11:12:44;45.60;28.60
76537;DHT22;65381;51.254;15.592;2023-09-18T11:15:45;45.30;28.50
76537;DHT22;65381;51.254;15.592;2023-09-18T11:18:13;44.60;28.60
76537;DHT22;65381;51.254;15.592;2023-09-18T11:21:07;44.30;29.20
76537;DHT22;65381;51.254;15.592;2023-09-18T11:23:37;44.70;28.80
76537;DHT22;65381;51.254;15.592;2023-09-18T11:26:10;45.00;28.50
76537;DHT22;65381;51.254;15.592;2023-09-18T11:28:39;44.80;28.40
76537;DHT22;65381;51.254;15.592;2023-09-18T11:31:06;44.10;28.70
76537;DHT22;65381;51.254;15.592;2023-09-18T11:33:37;43.80;28.90
76537;DHT22;65381;51.254;15.592;2023-09-18T11:36:13;43.60;28.80
76537;DHT22;65381;51.254;15.592;2023-09-18T11:38:59;43.50;28.70
76537;DHT22;65381;51.254;15.592;2023-09-18T11:41:35;43.10;29.00
76537;DHT22;65381;51.254;15.592;2023-09-18T11:44:35;43.20;28.70
76537;DHT22;65381;51.254;15.592;2023-09-18T11:47:11;43.10;28.80
76537;DHT22;65381;51.254;15.592;2023-09-18T11:50:06;43.40;28.60
76537;DHT22;65381;51.254;15.592;2023-09-18T11:52:41;43.70;28.30
76537;DHT22;65381;51.254;15.592;2023-09-18T11:55:12;43.90;28.10
76537;DHT22;65381;51.254;15.592;2023-09-18T11:57:40;44.00;28.00
76537;DHT22;65381;51.254;15.592;2023-09-18T12:00:31;44.50;27.80
76537;DHT22;65381;51.254;15.592;2023-09-18T12:03:17;44.90;27.50
76537;DHT22;65381;51.254;15.592;2023-09-18T12:06:02;45.00;27.20
76537;DHT22;65381;51.254;15.592;2023-09-18T12:08:33;43.60;27.70
76537;DHT22;65381;51.254;15.592;2023-09-18T12:11:07;42.60;28.20
76537;DHT22;65381;51.254;15.592;2023-09-18T12:13:35;42.00;28.40
76537;DHT22;65381;51.254;15.592;2023-09-18T12:16:04;41.80;28.50
76537;DHT22;65381;51.254;15.592;2023-09-18T12:18:33;41.80;28.50
76537;DHT22;65381;51.254;15.592;2023-09-18T12:21:07;42.30;28.30
76537;DHT22;65381;51.254;15.592;2023-09-18T12:23:41;42.80;27.90
76537;DHT22;65381;51.254;15.592;2023-09-18T12:26:15;42.80;27.90
76537;DHT22;65381;51.254;15.592;2023-09-18T12:28:44;42.80;27.80
76537;DHT22;65381;51.254;15.592;2023-09-18T12:31:13;42.10;27.80
76537;DHT22;65381;51.254;15.592;2023-09-18T12:33:43;41.20;28.30
76537;DHT22;65381;51.254;15.592;2023-09-18T12:36:19;40.50;28.40
76537;DHT22;65381;51.254;15.592;2023-09-18T12:38:58;40.10;28.70
76537;DHT22;65381;51.254;15.592;2023-09-18T12:41:30;40.10;28.70
76537;DHT22;65381;51.254;15.592;2023-09-18T12:44:00;40.20;28.70
76537;DHT22;65381;51.254;15.592;2023-09-18T12:46:29;40.50;28.60
76537;DHT22;65381;51.254;15.592;2023-09-18T12:48:57;40.60;28.40
76537;DHT22;65381;51.254;15.592;2023-09-18T12:51:31;40.00;28.60
76537;DHT22;65381;51.254;15.592;2023-09-18T12:54:02;39.30;29.00
76537;DHT22;65381;51.254;15.592;2023-09-18T12:56:40;38.90;29.30
76537;DHT22;65381;51.254;15.592;2023-09-18T12:59:09;39.20;29.20
76537;DHT22;65381;51.254;15.592;2023-09-18T13:01:47;39.50;29.10
76537;DHT22;65381;51.254;15.592;2023-09-18T13:04:15;39.40;29.00
76537;DHT22;65381;51.254;15.592;2023-09-18T13:06:44;38.90;29.30
76537;DHT22;65381;51.254;15.592;2023-09-18T13:09:16;38.50;29.50
76537;DHT22;65381;51.254;15.592;2023-09-18T13:11:57;38.30;29.70
76537;DHT22;65381;51.254;15.592;2023-09-18T13:14:25;38.30;29.80
76537;DHT22;65381;51.254;15.592;2023-09-18T13:17:00;38.40;29.70
76537;DHT22;65381;51.254;15.592;2023-09-18T13:19:31;38.10;29.70
76537;DHT22;65381;51.254;15.592;2023-09-18T13:22:00;37.50;29.90
76537;DHT22;65381;51.254;15.592;2023-09-18T13:24:30;37.30;30.10
76537;DHT22;65381;51.254;15.592;2023-09-18T13:27:00;37.00;30.30
76537;DHT22;65381;51.254;15.592;2023-09-18T13:29:28;37.00;30.50
76537;DHT22;65381;51.254;15.592;2023-09-18T13:31:56;37.30;30.50
76537;DHT22;65381;51.254;15.592;2023-09-18T13:34:26;37.80;30.30
76537;DHT22;65381;51.254;15.592;2023-09-18T13:36:54;38.30;30.10
76537;DHT22;65381;51.254;15.592;2023-09-18T13:39:22;38.50;30.00
76537;DHT22;65381;51.254;15.592;2023-09-18T13:41:51;38.70;30.00
76537;DHT22;65381;51.254;15.592;2023-09-18T13:44:18;38.40;30.00
76537;DHT22;65381;51.254;15.592;2023-09-18T13:46:49;37.80;30.40
76537;DHT22;65381;51.254;15.592;2023-09-18T13:49:17;37.30;30.70
76537;DHT22;65381;51.254;15.592;2023-09-18T13:51:45;36.90;31.00
76537;DHT22;65381;51.254;15.592;2023-09-18T13:54:14;36.90;31.10
76537;DHT22;65381;51.254;15.592;2023-09-18T13:56:43;36.90;31.00
76537;DHT22;65381;51.254;15.592;2023-09-18T13:59:11;36.70;31.10
76537;DHT22;65381;51.254;15.592;2023-09-18T14:01:39;36.60;31.10
76537;DHT22;65381;51.254;15.592;2023-09-18T14:04:07;36.70;31.10
76537;DHT22;65381;51.254;15.592;2023-09-18T14:06:35;36.70;31.10
76537;DHT22;65381;51.254;15.592;2023-09-18T14:09:03;36.90;31.00
76537;DHT22;65381;51.254;15.592;2023-09-18T14:11:35;36.80;31.00
76537;DHT22;65381;51.254;15.592;2023-09-18T14:14:05;36.30;31.30
76537;DHT22;65381;51.254;15.592;2023-09-18T14:16:34;35.70;31.60
76537;DHT22;65381;51.254;15.592;2023-09-18T14:19:01;35.10;31.90
76537;DHT22;65381;51.254;15.592;2023-09-18T14:21:30;34.60;32.30
76537;DHT22;65381;51.254;15.592;2023-09-18T14:23:58;34.20;32.60
76537;DHT22;65381;51.254;15.592;2023-09-18T14:26:28;33.80;32.80
76537;DHT22;65381;51.254;15.592;2023-09-18T14:28:56;33.40;33.10
76537;DHT22;65381;51.254;15.592;2023-09-18T14:31:24;33.00;33.30
76537;DHT22;65381;51.254;15.592;2023-09-18T14:33:53;32.70;33.40
76537;DHT22;65381;51.254;15.592;2023-09-18T14:36:21;32.40;33.50
76537;DHT22;65381;51.254;15.592;2023-09-18T14:38:50;32.10;33.80
76537;DHT22;65381;51.254;15.592;2023-09-18T14:41:19;31.90;33.90
76537;DHT22;65381;51.254;15.592;2023-09-18T14:43:49;31.60;34.00
76537;DHT22;65381;51.254;15.592;2023-09-18T14:46:17;31.30;34.20
76537;DHT22;65381;51.254;15.592;2023-09-18T14:48:46;30.90;34.40
76537;DHT22;65381;51.254;15.592;2023-09-18T14:51:15;30.70;34.60
76537;DHT22;65381;51.254;15.592;2023-09-18T14:53:45;30.60;34.70
76537;DHT22;65381;51.254;15.592;2023-09-18T14:56:13;30.50;34.90
76537;DHT22;65381;51.254;15.592;2023-09-18T14:58:41;30.40;35.00
76537;DHT22;65381;51.254;15.592;2023-09-18T15:01:14;30.30;35.00
76537;DHT22;65381;51.254;15.592;2023-09-18T15:03:42;30.10;35.20
76537;DHT22;65381;51.254;15.592;2023-09-18T15:06:13;30.00;35.40
76537;DHT22;65381;51.254;15.592;2023-09-18T15:08:43;29.90;35.50
76537;DHT22;65381;51.254;15.592;2023-09-18T15:11:12;29.70;35.70
76537;DHT22;65381;51.254;15.592;2023-09-18T15:13:41;29.50;35.90
76537;DHT22;65381;51.254;15.592;2023-09-18T15:16:12;29.40;36.10
76537;DHT22;65381;51.254;15.592;2023-09-18T15:18:40;29.30;36.30
76537;DHT22;65381;51.254;15.592;2023-09-18T15:21:09;29.10;36.40
76537;DHT22;65381;51.254;15.592;2023-09-18T15:23:38;29.10;36.60
76537;DHT22;65381;51.254;15.592;2023-09-18T15:26:08;28.90;36.90
76537;DHT22;65381;51.254;15.592;2023-09-18T15:28:37;28.70;37.00
76537;DHT22;65381;51.254;15.592;2023-09-18T15:31:05;28.70;37.20
76537;DHT22;65381;51.254;15.592;2023-09-18T15:33:35;28.60;37.30
76537;DHT22;65381;51.254;15.592;2023-09-18T15:36:05;28.50;37.50
76537;DHT22;65381;51.254;15.592;2023-09-18T15:38:33;28.30;37.70
76537;DHT22;65381;51.254;15.592;2023-09-18T15:41:03;28.10;38.00